createdAt,value
2024-02-26T00:00:43.037Z,87.16
2024-02-26T00:01:44.863Z,87.45
2024-02-26T00:02:46.497Z,87.29
2024-02-26T00:03:48.477Z,87.49
2024-02-26T00:04:51.154Z,87.68
2024-02-26T00:05:53.041Z,86.47
2024-02-26T00:06:55.915Z,86.62
2024-02-26T00:07:57.660Z,86.97
2024-02-26T00:08:59.405Z,87.09
2024-02-26T00:10:01.143Z,87.36
2024-02-26T00:11:02.786Z,87.51
2024-02-26T00:12:05.333Z,87.42
2024-02-26T00:13:06.932Z,87.92
2024-02-26T00:14:08.501Z,87.98
2024-02-26T00:15:12.171Z,89.04
2024-02-26T00:16:13.816Z,90.07
2024-02-26T00:17:15.418Z,91.39
2024-02-26T00:18:17.140Z,91.52
2024-02-26T00:19:18.961Z,91.27
2024-02-26T00:20:20.707Z,91.12
2024-02-26T00:21:22.390Z,90.72
2024-02-26T00:22:24.006Z,90.29
2024-02-26T00:23:25.770Z,89.69
2024-02-26T00:24:27.420Z,89.94
2024-02-26T00:25:29.035Z,90.01
2024-02-26T00:26:30.667Z,90.20
2024-02-26T00:27:32.272Z,91.05
2024-02-26T00:28:33.853Z,91.02
2024-02-26T00:29:35.714Z,91.16
2024-02-26T00:30:37.344Z,90.61
2024-02-26T00:31:39.275Z,90.42
2024-02-26T00:32:41.080Z,89.63
2024-02-26T00:33:42.881Z,88.74
2024-02-26T00:34:44.857Z,88.53
2024-02-26T00:35:46.475Z,88.85
2024-02-26T00:36:48.045Z,88.57
2024-02-26T00:37:49.692Z,89.00
2024-02-26T00:38:53.984Z,88.50
2024-02-26T00:39:55.614Z,88.62
2024-02-26T00:40:57.249Z,88.10
2024-02-26T00:41:58.877Z,88.58
2024-02-26T00:43:00.549Z,88.48
2024-02-26T00:44:02.170Z,88.38
2024-02-26T00:45:04.104Z,88.31
2024-02-26T00:46:05.964Z,88.22
2024-02-26T00:47:07.558Z,87.90
2024-02-26T00:48:09.339Z,87.69
2024-02-26T00:49:11.152Z,87.63
2024-02-26T00:50:12.827Z,88.14
2024-02-26T00:51:14.507Z,88.50
2024-02-26T00:52:16.127Z,88.17
2024-02-26T00:53:17.722Z,88.29
2024-02-26T00:54:19.492Z,87.86
2024-02-26T00:55:21.307Z,88.16
2024-02-26T00:56:23.426Z,88.23
2024-02-26T00:57:25.497Z,88.20
2024-02-26T00:58:27.370Z,88.11
2024-02-26T00:59:28.968Z,87.72
2024-02-26T01:00:30.583Z,87.47
2024-02-26T01:01:32.195Z,87.23
2024-02-26T01:02:33.825Z,87.80
2024-02-26T01:03:35.597Z,87.63
2024-02-26T01:04:37.337Z,87.90
2024-02-26T01:05:39.185Z,88.12
2024-02-26T01:06:40.957Z,88.64
2024-02-26T01:07:42.820Z,89.63
2024-02-26T01:08:44.593Z,89.21
2024-02-26T01:09:46.191Z,88.89
2024-02-26T01:10:47.817Z,89.04
2024-02-26T01:11:49.530Z,88.52
2024-02-26T01:12:51.157Z,89.09
2024-02-26T01:13:57.338Z,89.02
2024-02-26T01:14:59.102Z,89.52
2024-02-26T01:16:01.815Z,89.87
2024-02-26T01:17:03.934Z,89.73
2024-02-26T01:18:05.722Z,89.50
2024-02-26T01:19:07.584Z,89.23
2024-02-26T01:20:10.080Z,89.07
2024-02-26T01:21:11.815Z,89.46
2024-02-26T01:22:13.637Z,90.35
2024-02-26T01:23:15.278Z,90.83
2024-02-26T01:24:16.981Z,90.97
2024-02-26T01:25:19.304Z,91.02
2024-02-26T01:26:20.905Z,91.51
2024-02-26T01:27:22.569Z,89.92
2024-02-26T01:28:24.203Z,90.11
2024-02-26T01:29:25.797Z,89.37
2024-02-26T01:30:27.471Z,89.71
2024-02-26T01:31:29.523Z,89.84
2024-02-26T01:32:31.516Z,89.66
2024-02-26T01:33:33.231Z,90.70
2024-02-26T01:34:35.265Z,91.02
2024-02-26T01:35:37.140Z,92.15
2024-02-26T01:36:38.799Z,91.50
2024-02-26T01:37:40.462Z,92.92
2024-02-26T01:38:42.083Z,91.79
2024-02-26T01:39:43.754Z,91.55
2024-02-26T01:40:45.345Z,91.32
2024-02-26T01:41:46.941Z,91.52
2024-02-26T01:42:49.586Z,90.88
2024-02-26T01:43:51.279Z,90.76
2024-02-26T01:44:52.892Z,90.25
2024-02-26T01:45:55.181Z,90.53
2024-02-26T01:46:56.881Z,91.88
2024-02-26T01:47:58.964Z,90.99
2024-02-26T01:49:02.395Z,91.37
2024-02-26T01:50:04.552Z,91.55
2024-02-26T01:51:06.742Z,91.95
2024-02-26T01:52:09.852Z,92.16
2024-02-26T01:53:11.657Z,91.94
2024-02-26T01:54:13.565Z,91.89
2024-02-26T01:55:15.920Z,91.59
2024-02-26T01:56:19.251Z,90.76
2024-02-26T01:57:21.457Z,90.23
2024-02-26T01:58:23.760Z,89.31
2024-02-26T01:59:25.766Z,89.30
2024-02-26T02:00:27.562Z,89.52
2024-02-26T02:01:32.126Z,89.54
2024-02-26T02:02:33.781Z,89.64
2024-02-26T02:03:35.530Z,89.93
2024-02-26T02:04:37.708Z,89.42
2024-02-26T02:05:42.991Z,89.49
2024-02-26T02:06:47.442Z,90.76
2024-02-26T02:07:50.350Z,90.13
2024-02-26T02:08:52.252Z,89.51
2024-02-26T02:09:54.615Z,89.65
2024-02-26T02:10:56.604Z,89.49
2024-02-26T02:11:59.293Z,89.66
2024-02-26T02:13:00.911Z,89.68
2024-02-26T02:14:02.507Z,89.21
2024-02-26T02:15:05.151Z,88.55
2024-02-26T02:16:07.205Z,88.62
2024-02-26T02:17:08.872Z,88.08
2024-02-26T02:18:10.637Z,88.69
2024-02-26T02:19:12.439Z,89.27
2024-02-26T02:20:18.582Z,88.90
2024-02-26T02:21:20.325Z,89.14
2024-02-26T02:22:22.001Z,89.77
2024-02-26T02:23:23.596Z,90.55
2024-02-26T02:24:25.266Z,90.88
2024-02-26T02:25:27.263Z,90.73
2024-02-26T02:26:28.890Z,90.83
2024-02-26T02:27:30.851Z,90.41
2024-02-26T02:28:32.766Z,89.69
2024-02-26T02:29:34.388Z,89.49
2024-02-26T02:30:37.205Z,89.39
2024-02-26T02:31:39.214Z,89.83
2024-02-26T02:32:41.955Z,89.14
2024-02-26T02:33:44.282Z,88.97
2024-02-26T02:34:46.797Z,89.16
2024-02-26T02:35:50.405Z,90.33
2024-02-26T02:36:54.713Z,90.83
2024-02-26T02:37:58.446Z,90.81
2024-02-26T02:39:00.131Z,91.10
2024-02-26T02:40:02.198Z,91.13
2024-02-26T02:41:03.923Z,91.92
2024-02-26T02:42:06.886Z,92.44
2024-02-26T02:43:08.487Z,92.80
2024-02-26T02:44:10.069Z,92.62
2024-02-26T02:45:11.795Z,92.10
2024-02-26T02:46:13.475Z,91.29
2024-02-26T02:47:15.074Z,90.99
2024-02-26T02:48:16.824Z,90.12
2024-02-26T02:49:18.624Z,89.91
2024-02-26T02:50:20.364Z,89.73
2024-02-26T02:51:22.630Z,89.67
2024-02-26T02:52:24.272Z,89.42
2024-02-26T02:53:25.867Z,89.13
2024-02-26T02:54:27.596Z,89.45
2024-02-26T02:55:29.287Z,90.79
2024-02-26T02:56:30.912Z,90.13
2024-02-26T02:57:33.715Z,89.18
2024-02-26T02:58:35.341Z,89.62
2024-02-26T02:59:38.325Z,89.61
2024-02-26T03:00:40.099Z,89.80
2024-02-26T03:01:41.822Z,89.66
2024-02-26T03:02:44.038Z,89.34
2024-02-26T03:03:45.823Z,89.64
2024-02-26T03:04:47.505Z,89.73
2024-02-26T03:05:49.215Z,89.19
2024-02-26T03:06:50.934Z,89.17
2024-02-26T03:07:53.751Z,89.25
2024-02-26T03:08:56.047Z,89.22
2024-02-26T03:09:57.757Z,88.42
2024-02-26T03:11:00.034Z,88.63
2024-02-26T03:12:01.745Z,88.90
2024-02-26T03:13:03.801Z,88.96
2024-02-26T03:14:06.060Z,88.87
2024-02-26T03:15:07.940Z,89.23
2024-02-26T03:16:09.654Z,89.17
2024-02-26T03:17:11.318Z,88.87
2024-02-26T03:18:12.993Z,88.38
2024-02-26T03:19:18.199Z,88.41
2024-02-26T03:20:20.627Z,88.32
2024-02-26T03:21:22.564Z,89.01
2024-02-26T03:22:24.259Z,88.91
2024-02-26T03:23:25.890Z,88.86
2024-02-26T03:24:27.600Z,88.93
2024-02-26T03:25:29.215Z,88.72
2024-02-26T03:26:32.348Z,88.80
2024-02-26T03:27:34.018Z,88.59
2024-02-26T03:28:35.629Z,89.43
2024-02-26T03:29:38.447Z,89.47
2024-02-26T03:30:40.070Z,89.54
2024-02-26T03:31:41.907Z,90.52
2024-02-26T03:32:43.678Z,91.50
2024-02-26T03:33:45.563Z,90.98
2024-02-26T03:34:47.717Z,91.27
2024-02-26T03:35:49.464Z,91.37
2024-02-26T03:36:51.078Z,91.69
2024-02-26T03:37:52.924Z,91.99
2024-02-26T03:38:54.620Z,92.67
2024-02-26T03:39:58.276Z,92.66
2024-02-26T03:40:59.934Z,92.42
2024-02-26T03:42:01.838Z,92.36
2024-02-26T03:43:05.498Z,92.71
2024-02-26T03:44:07.127Z,93.17
2024-02-26T03:45:10.316Z,92.71
2024-02-26T03:46:13.124Z,91.99
2024-02-26T03:47:14.692Z,92.23
2024-02-26T03:48:16.374Z,92.15
2024-02-26T03:49:19.192Z,92.00
2024-02-26T03:50:20.890Z,91.75
2024-02-26T03:51:22.556Z,91.63
2024-02-26T03:52:24.283Z,91.22
2024-02-26T03:53:25.960Z,90.92
2024-02-26T03:54:27.577Z,91.04
2024-02-26T03:55:29.225Z,90.71
2024-02-26T03:56:30.869Z,90.68
2024-02-26T03:57:32.445Z,90.58
2024-02-26T03:58:34.078Z,90.83
2024-02-26T03:59:35.697Z,90.95
2024-02-26T04:00:38.338Z,91.82
2024-02-26T04:01:40.159Z,92.24
2024-02-26T04:02:41.794Z,92.20
2024-02-26T04:03:43.424Z,92.36
2024-02-26T04:04:45.063Z,92.03
2024-02-26T04:05:46.818Z,91.66
2024-02-26T04:06:48.681Z,91.63
2024-02-26T04:07:50.357Z,91.50
2024-02-26T04:08:51.966Z,90.92
2024-02-26T04:09:53.626Z,90.82
2024-02-26T04:10:55.254Z,91.48
2024-02-26T04:11:56.897Z,91.02
2024-02-26T04:12:58.526Z,91.23
2024-02-26T04:14:00.165Z,91.94
2024-02-26T04:15:01.821Z,90.84
2024-02-26T04:16:03.861Z,91.28
2024-02-26T04:17:05.528Z,90.81
2024-02-26T04:18:07.327Z,90.68
2024-02-26T04:19:09.174Z,90.58
2024-02-26T04:20:15.191Z,90.53
2024-02-26T04:21:16.834Z,90.61
2024-02-26T04:22:18.565Z,90.38
2024-02-26T04:23:20.152Z,90.30
2024-02-26T04:24:21.767Z,90.72
2024-02-26T04:25:23.440Z,91.28
2024-02-26T04:26:25.308Z,91.75
2024-02-26T04:27:26.999Z,91.72
2024-02-26T04:28:30.116Z,91.39
2024-02-26T04:29:31.721Z,90.85
2024-02-26T04:30:33.363Z,90.92
2024-02-26T04:31:35.032Z,90.84
2024-02-26T04:32:36.677Z,90.79
2024-02-26T04:33:38.552Z,90.80
2024-02-26T04:34:40.441Z,91.01
2024-02-26T04:35:42.141Z,90.48
2024-02-26T04:36:43.787Z,90.99
2024-02-26T04:37:45.403Z,91.32
2024-02-26T04:38:47.202Z,91.00
2024-02-26T04:39:51.068Z,91.37
2024-02-26T04:40:52.922Z,91.59
2024-02-26T04:41:54.565Z,92.50
2024-02-26T04:42:56.166Z,92.59
2024-02-26T04:43:57.784Z,92.33
2024-02-26T04:44:59.413Z,91.87
2024-02-26T04:46:01.028Z,92.85
2024-02-26T04:47:03.022Z,92.69
2024-02-26T04:48:05.166Z,92.59
2024-02-26T04:49:07.196Z,92.96
2024-02-26T04:50:09.297Z,93.77
2024-02-26T04:51:11.036Z,94.20
2024-02-26T04:52:12.728Z,94.63
2024-02-26T04:53:14.407Z,94.95
2024-02-26T04:54:16.357Z,95.38
2024-02-26T04:55:18.033Z,95.38
2024-02-26T04:56:19.696Z,94.43
2024-02-26T04:57:22.628Z,93.85
2024-02-26T04:58:24.336Z,93.81
2024-02-26T04:59:25.950Z,93.18
2024-02-26T05:00:27.598Z,93.20
2024-02-26T05:01:29.818Z,92.92
2024-02-26T05:02:33.347Z,92.68
2024-02-26T05:03:37.087Z,92.59
2024-02-26T05:04:38.985Z,92.50
2024-02-26T05:05:44.453Z,91.48
2024-02-26T05:06:46.179Z,90.93
2024-02-26T05:07:47.829Z,91.31
2024-02-26T05:08:49.452Z,91.60
2024-02-26T05:09:51.163Z,91.67
2024-02-26T05:10:52.801Z,92.12
2024-02-26T05:11:54.496Z,91.62
2024-02-26T05:12:56.136Z,92.17
2024-02-26T05:13:58.123Z,92.24
2024-02-26T05:15:00.233Z,92.27
2024-02-26T05:16:01.975Z,93.18
2024-02-26T05:17:03.655Z,93.35
2024-02-26T05:18:05.841Z,92.87
2024-02-26T05:19:07.587Z,92.71
2024-02-26T05:20:09.985Z,93.50
2024-02-26T05:21:11.620Z,93.28
2024-02-26T05:22:13.856Z,93.40
2024-02-26T05:23:15.453Z,92.73
2024-02-26T05:24:18.459Z,92.14
2024-02-26T05:25:20.430Z,91.63
2024-02-26T05:26:25.065Z,91.74
2024-02-26T05:27:26.697Z,91.98
2024-02-26T05:28:28.326Z,91.52
2024-02-26T05:29:29.939Z,91.79
2024-02-26T05:30:31.583Z,92.75
2024-02-26T05:31:33.292Z,93.05
2024-02-26T05:32:34.900Z,93.25
2024-02-26T05:33:36.639Z,93.97
2024-02-26T05:34:38.406Z,94.21
2024-02-26T05:35:40.070Z,93.47
2024-02-26T05:36:41.701Z,94.40
2024-02-26T05:37:43.325Z,93.55
2024-02-26T05:38:47.554Z,93.51
2024-02-26T05:39:49.378Z,93.42
2024-02-26T05:40:53.375Z,93.47
2024-02-26T05:41:55.027Z,93.65
2024-02-26T05:42:56.958Z,93.93
2024-02-26T05:43:59.445Z,94.71
2024-02-26T05:45:06.074Z,94.18
2024-02-26T05:46:07.719Z,94.37
2024-02-26T05:47:09.308Z,94.63
2024-02-26T05:48:11.186Z,94.62
2024-02-26T05:49:12.932Z,94.95
2024-02-26T05:50:15.657Z,94.81
2024-02-26T05:51:17.496Z,95.40
2024-02-26T05:52:19.130Z,95.35
2024-02-26T05:53:20.753Z,95.16
2024-02-26T05:54:22.389Z,95.45
2024-02-26T05:55:24.081Z,95.33
2024-02-26T05:56:25.693Z,95.23
2024-02-26T05:57:27.350Z,95.73
2024-02-26T05:58:29.051Z,95.85
2024-02-26T05:59:30.661Z,95.39
2024-02-26T06:00:32.713Z,95.77
2024-02-26T06:01:34.505Z,95.21
2024-02-26T06:02:36.133Z,95.67
2024-02-26T06:03:37.846Z,95.80
2024-02-26T06:04:39.870Z,95.90
2024-02-26T06:05:41.542Z,96.06
2024-02-26T06:06:44.376Z,95.87
2024-02-26T06:07:46.167Z,95.88
2024-02-26T06:08:47.834Z,95.27
2024-02-26T06:09:49.718Z,94.72
2024-02-26T06:10:51.362Z,95.67
2024-02-26T06:11:53.482Z,94.82
2024-02-26T06:12:55.136Z,94.61
2024-02-26T06:13:56.754Z,93.55
2024-02-26T06:14:59.108Z,94.55
2024-02-26T06:16:00.733Z,94.80
2024-02-26T06:17:02.311Z,93.79
2024-02-26T06:18:04.059Z,93.91
2024-02-26T06:19:05.846Z,94.07
2024-02-26T06:20:12.791Z,94.03
2024-02-26T06:21:14.581Z,93.97
2024-02-26T06:22:16.266Z,93.67
2024-02-26T06:23:18.147Z,94.82
2024-02-26T06:24:21.836Z,93.59
2024-02-26T06:25:23.484Z,94.77
2024-02-26T06:26:25.117Z,95.81
2024-02-26T06:27:26.878Z,96.91
2024-02-26T06:28:31.456Z,97.91
2024-02-26T06:29:33.097Z,97.06
2024-02-26T06:30:34.770Z,98.48
2024-02-26T06:31:36.395Z,98.19
2024-02-26T06:32:41.330Z,100.00
2024-02-26T06:33:43.277Z,99.88
2024-02-26T06:34:45.136Z,99.86
2024-02-26T06:35:46.841Z,99.46
2024-02-26T06:36:48.448Z,99.73
2024-02-26T06:37:53.589Z,99.51
2024-02-26T06:38:55.541Z,99.73
2024-02-26T06:39:57.302Z,99.56
2024-02-26T06:40:59.099Z,100.00
2024-02-26T06:42:03.489Z,100.00
2024-02-26T06:43:05.196Z,100.00
2024-02-26T06:44:07.015Z,100.00
2024-02-26T06:45:09.268Z,100.00
2024-02-26T06:46:11.011Z,100.00
2024-02-26T06:47:13.347Z,100.00
2024-02-26T06:48:15.090Z,100.00
2024-02-26T06:49:16.866Z,100.00
2024-02-26T06:50:18.738Z,100.00
2024-02-26T06:51:20.377Z,100.00
2024-02-26T06:52:21.980Z,100.00
2024-02-26T06:53:23.811Z,100.00
2024-02-26T06:54:25.511Z,100.00
2024-02-26T06:55:27.129Z,100.00
2024-02-26T06:56:29.459Z,100.00
2024-02-26T06:57:31.090Z,100.00
2024-02-26T06:58:32.737Z,100.00
2024-02-26T06:59:34.352Z,100.00
2024-02-26T07:00:36.565Z,100.00
2024-02-26T07:01:38.237Z,100.00
2024-02-26T07:02:40.331Z,100.00
2024-02-26T07:03:42.413Z,100.00
2024-02-26T07:04:44.522Z,100.00
2024-02-26T07:05:47.232Z,100.00
2024-02-26T07:06:49.119Z,100.00
2024-02-26T07:07:50.889Z,100.00
2024-02-26T07:08:52.521Z,100.00
2024-02-26T07:09:54.127Z,100.00
2024-02-26T07:10:56.002Z,100.00
2024-02-26T07:12:01.139Z,100.00
2024-02-26T07:13:03.152Z,100.00
2024-02-26T07:14:04.732Z,100.00
2024-02-26T07:15:08.997Z,100.00
2024-02-26T07:16:11.473Z,100.00
2024-02-26T07:17:13.088Z,100.00
2024-02-26T07:18:14.901Z,100.00
2024-02-26T07:19:16.704Z,100.00
2024-02-26T07:20:19.518Z,100.00
2024-02-26T07:21:21.225Z,100.00
2024-02-26T07:22:22.842Z,100.00
2024-02-26T07:23:24.402Z,100.00
2024-02-26T07:24:26.054Z,100.00
2024-02-26T07:25:27.654Z,100.00
2024-02-26T07:26:31.433Z,100.00
2024-02-26T07:27:33.123Z,100.00
2024-02-26T07:28:35.050Z,100.00
2024-02-26T07:29:36.654Z,100.00
2024-02-26T07:30:38.272Z,100.00
2024-02-26T07:31:39.923Z,100.00
2024-02-26T07:32:41.589Z,100.00
2024-02-26T07:33:43.309Z,100.00
2024-02-26T07:34:45.923Z,100.00
2024-02-26T07:35:47.800Z,100.00
2024-02-26T07:36:49.422Z,100.00
2024-02-26T07:37:51.496Z,100.00
2024-02-26T07:38:55.311Z,100.00
2024-02-26T07:39:56.978Z,100.00
2024-02-26T07:41:03.156Z,100.00
2024-02-26T07:42:05.803Z,100.00
2024-02-26T07:43:07.483Z,100.00
2024-02-26T07:44:10.167Z,100.00
2024-02-26T07:45:12.441Z,100.00
2024-02-26T07:46:14.178Z,100.00
2024-02-26T07:47:15.795Z,100.00
2024-02-26T07:48:17.561Z,100.00
2024-02-26T07:49:19.229Z,100.00
2024-02-26T07:50:21.035Z,100.00
2024-02-26T07:51:23.645Z,100.00
2024-02-26T07:52:25.455Z,100.00
2024-02-26T07:53:27.070Z,100.00
2024-02-26T07:54:28.745Z,100.00
2024-02-26T07:55:30.440Z,100.00
2024-02-26T07:56:32.050Z,100.00
2024-02-26T07:57:34.900Z,100.00
2024-02-26T07:58:36.712Z,100.00
2024-02-26T07:59:38.505Z,100.00
2024-02-26T08:00:40.102Z,100.00
2024-02-26T08:01:42.779Z,100.00
2024-02-26T08:02:45.257Z,100.00
2024-02-26T08:03:46.975Z,100.00
2024-02-26T08:04:48.662Z,100.00
2024-02-26T08:05:50.307Z,100.00
2024-02-26T08:06:52.084Z,100.00
2024-02-26T08:07:53.777Z,100.00
2024-02-26T08:08:58.273Z,100.00
2024-02-26T08:09:59.903Z,100.00
2024-02-26T08:11:01.491Z,100.00
2024-02-26T08:12:03.382Z,100.00
2024-02-26T08:13:07.858Z,100.00
2024-02-26T08:14:09.525Z,100.00
2024-02-26T08:15:12.422Z,100.00
2024-02-26T08:16:14.181Z,100.00
2024-02-26T08:17:15.785Z,100.00
2024-02-26T08:18:17.679Z,100.00
2024-02-26T08:19:20.062Z,100.00
2024-02-26T08:20:21.795Z,100.00
2024-02-26T08:21:23.532Z,100.00
2024-02-26T08:22:25.202Z,100.00
2024-02-26T08:23:27.328Z,100.00
2024-02-26T08:24:29.326Z,100.00
2024-02-26T08:25:30.942Z,100.00
2024-02-26T08:26:32.542Z,100.00
2024-02-26T08:27:34.320Z,100.00
2024-02-26T08:28:38.022Z,100.00
2024-02-26T08:29:39.632Z,100.00
2024-02-26T08:30:41.216Z,100.00
2024-02-26T08:31:42.857Z,100.00
2024-02-26T08:32:51.908Z,100.00
2024-02-26T08:33:54.555Z,100.00
2024-02-26T08:34:56.536Z,100.00
2024-02-26T08:35:58.235Z,100.00
2024-02-26T08:36:59.848Z,100.00
2024-02-26T08:38:01.436Z,100.00
2024-02-26T08:39:03.193Z,100.00
2024-02-26T08:40:07.168Z,100.00
2024-02-26T08:41:09.904Z,100.00
2024-02-26T08:42:11.570Z,100.00
2024-02-26T08:43:13.202Z,100.00
2024-02-26T08:44:14.855Z,100.00
2024-02-26T08:45:16.604Z,100.00
2024-02-26T08:46:18.306Z,100.00
2024-02-26T08:47:19.927Z,100.00
2024-02-26T08:48:21.657Z,100.00
2024-02-26T08:49:24.948Z,100.00
2024-02-26T08:50:26.765Z,100.00
2024-02-26T08:51:28.436Z,100.00
2024-02-26T08:52:30.136Z,100.00
2024-02-26T08:53:38.132Z,100.00
2024-02-26T08:54:44.229Z,100.00
2024-02-26T08:55:45.838Z,100.00
2024-02-26T08:56:47.545Z,100.00
2024-02-26T08:57:49.607Z,100.00
2024-02-26T08:58:54.459Z,100.00
2024-02-26T08:59:56.179Z,100.00
2024-02-26T09:00:57.852Z,100.00
2024-02-26T09:01:59.488Z,100.00
2024-02-26T09:03:05.152Z,100.00
2024-02-26T09:04:07.413Z,100.00
2024-02-26T09:05:09.129Z,100.00
2024-02-26T09:06:11.063Z,100.00
2024-02-26T09:07:12.752Z,100.00
2024-02-26T09:08:14.425Z,100.00
2024-02-26T09:09:16.025Z,100.00
2024-02-26T09:10:17.791Z,100.00
2024-02-26T09:11:19.381Z,100.00
2024-02-26T09:12:21.126Z,100.00
2024-02-26T09:13:22.812Z,100.00
2024-02-26T09:14:26.719Z,100.00
2024-02-26T09:15:30.046Z,100.00
2024-02-26T09:16:31.704Z,100.00
2024-02-26T09:17:33.435Z,100.00
2024-02-26T09:18:35.136Z,100.00
2024-02-26T09:19:36.893Z,100.00
2024-02-26T09:20:38.551Z,100.00
2024-02-26T09:21:44.209Z,100.00
2024-02-26T09:22:45.828Z,100.00
2024-02-26T09:23:47.416Z,100.00
2024-02-26T09:24:50.757Z,100.00
2024-02-26T09:25:52.346Z,100.00
2024-02-26T09:26:53.991Z,100.00
2024-02-26T09:27:55.648Z,100.00
2024-02-26T09:28:57.272Z,100.00
2024-02-26T09:29:58.914Z,100.00
2024-02-26T09:31:00.566Z,100.00
2024-02-26T09:32:02.219Z,100.00
2024-02-26T09:33:04.055Z,100.00
2024-02-26T09:34:06.102Z,100.00
2024-02-26T09:35:08.223Z,100.00
2024-02-26T09:36:11.929Z,100.00
2024-02-26T09:37:20.968Z,100.00
2024-02-26T09:38:24.782Z,100.00
2024-02-26T09:39:26.440Z,100.00
2024-02-26T09:40:28.938Z,100.00
2024-02-26T09:41:31.695Z,100.00
2024-02-26T09:42:34.477Z,100.00
2024-02-26T09:43:40.775Z,100.00
2024-02-26T09:44:44.632Z,100.00
2024-02-26T09:45:46.519Z,100.00
2024-02-26T09:46:50.858Z,100.00
2024-02-26T09:47:52.909Z,100.00
2024-02-26T09:48:55.188Z,100.00
2024-02-26T09:49:57.918Z,100.00
2024-02-26T09:50:59.572Z,100.00
2024-02-26T09:52:03.489Z,100.00
2024-02-26T09:53:06.512Z,100.00
2024-02-26T09:54:10.859Z,100.00
2024-02-26T09:55:12.523Z,99.65
2024-02-26T09:56:14.442Z,100.00
2024-02-26T09:57:18.295Z,99.70
2024-02-26T09:58:20.291Z,99.80
2024-02-26T09:59:22.241Z,99.60
2024-02-26T10:00:26.272Z,99.36
2024-02-26T10:01:28.446Z,99.48
2024-02-26T10:02:31.442Z,99.18
2024-02-26T10:03:41.127Z,98.75
2024-02-26T10:04:46.900Z,98.98
2024-02-26T10:05:51.602Z,98.18
2024-02-26T10:06:53.974Z,97.66
2024-02-26T10:07:58.620Z,97.53
2024-02-26T10:09:01.338Z,97.66
2024-02-26T10:10:04.432Z,97.11
2024-02-26T10:11:07.695Z,96.36
2024-02-26T10:12:16.904Z,96.66
2024-02-26T10:13:18.721Z,95.85
2024-02-26T10:14:20.329Z,96.06
2024-02-26T10:15:21.961Z,96.77
2024-02-26T10:16:23.891Z,96.75
2024-02-26T10:17:26.182Z,96.08
2024-02-26T10:18:29.144Z,95.87
2024-02-26T10:19:34.469Z,96.18
2024-02-26T10:20:37.528Z,96.71
2024-02-26T10:21:39.202Z,96.11
2024-02-26T10:22:40.829Z,95.30
2024-02-26T10:23:44.776Z,95.35
2024-02-26T10:24:48.187Z,95.51
2024-02-26T10:25:56.651Z,95.48
2024-02-26T10:26:58.861Z,95.70
2024-02-26T10:28:04.584Z,95.66
2024-02-26T10:29:06.172Z,94.99
2024-02-26T10:30:24.468Z,94.12
2024-02-26T10:31:26.445Z,93.90
2024-02-26T10:32:28.114Z,93.29
2024-02-26T10:33:31.537Z,93.33
2024-02-26T10:34:36.215Z,93.66
2024-02-26T10:35:41.554Z,93.53
2024-02-26T10:36:52.297Z,93.26
2024-02-26T10:37:55.698Z,93.62
2024-02-26T10:38:57.368Z,92.28
2024-02-26T10:39:59.018Z,92.88
2024-02-26T10:41:00.660Z,92.92
2024-02-26T10:42:07.856Z,93.88
2024-02-26T10:43:09.485Z,94.66
2024-02-26T10:44:13.729Z,94.36
2024-02-26T10:45:16.769Z,94.18
2024-02-26T10:46:19.032Z,93.85
2024-02-26T10:47:20.814Z,92.49
2024-02-26T10:48:22.819Z,93.05
2024-02-26T10:49:25.091Z,92.91
2024-02-26T10:50:26.929Z,92.29
2024-02-26T10:51:30.767Z,91.85
2024-02-26T10:52:34.529Z,91.97
2024-02-26T10:53:37.449Z,91.59
2024-02-26T10:54:42.428Z,92.03
2024-02-26T10:55:49.779Z,91.45
2024-02-26T10:56:52.023Z,91.64
2024-02-26T10:57:54.332Z,91.55
2024-02-26T10:58:59.826Z,91.91
2024-02-26T11:00:05.382Z,91.54
2024-02-26T11:01:07.575Z,91.50
2024-02-26T11:02:11.169Z,91.37
2024-02-26T11:03:14.867Z,91.20
2024-02-26T11:04:18.301Z,90.49
2024-02-26T11:05:20.646Z,89.68
2024-02-26T11:06:23.319Z,89.80
2024-02-26T11:07:26.550Z,90.10
2024-02-26T11:08:30.243Z,90.35
2024-02-26T11:09:33.812Z,90.26
2024-02-26T11:10:37.152Z,90.23
2024-02-26T11:11:38.752Z,89.69
2024-02-26T11:12:41.220Z,88.68
2024-02-26T11:13:46.325Z,88.16
2024-02-26T11:14:49.963Z,88.25
2024-02-26T11:15:52.758Z,86.41
2024-02-26T11:16:56.795Z,86.97
2024-02-26T11:17:59.243Z,87.03
2024-02-26T11:19:02.496Z,87.50
2024-02-26T11:20:05.159Z,88.30
2024-02-26T11:21:09.519Z,87.84
2024-02-26T11:22:18.770Z,87.55
2024-02-26T11:23:26.249Z,86.85
2024-02-26T11:24:28.246Z,86.43
2024-02-26T11:25:29.887Z,87.08
2024-02-26T11:26:31.883Z,86.11
2024-02-26T11:27:42.551Z,86.11
2024-02-26T11:28:46.040Z,85.47
2024-02-26T11:29:54.027Z,86.12
2024-02-26T11:30:56.309Z,86.14
2024-02-26T11:32:01.082Z,86.17
2024-02-26T11:33:03.202Z,85.87
2024-02-26T11:34:05.119Z,86.18
2024-02-26T11:35:08.480Z,85.91
2024-02-26T11:36:15.030Z,85.72
2024-02-26T11:37:18.024Z,86.02
2024-02-26T11:38:24.731Z,85.77
2024-02-26T11:39:26.868Z,85.03
2024-02-26T11:40:29.081Z,84.82
2024-02-26T11:41:31.163Z,85.26
2024-02-26T11:42:34.031Z,84.70
2024-02-26T11:44:02.335Z,83.99
2024-02-26T11:45:04.578Z,84.09
2024-02-26T11:46:25.317Z,84.03
2024-02-26T11:47:28.303Z,84.70
2024-02-26T11:48:30.121Z,84.45
2024-02-26T11:49:32.791Z,84.58
2024-02-26T11:50:40.252Z,83.22
2024-02-26T11:51:43.142Z,83.23
2024-02-26T11:53:23.824Z,83.73
2024-02-26T11:54:45.202Z,83.90
2024-02-26T11:55:46.813Z,83.52
2024-02-26T11:56:49.070Z,83.05
2024-02-26T11:57:50.666Z,82.78
2024-02-26T11:58:58.857Z,82.79
2024-02-26T12:00:14.866Z,82.21
2024-02-26T12:01:41.484Z,82.56
2024-02-26T12:02:59.304Z,82.40
2024-02-26T12:04:03.151Z,82.10
2024-02-26T12:05:10.402Z,81.08
2024-02-26T12:06:12.165Z,80.97
2024-02-26T12:07:14.073Z,81.21
2024-02-26T12:08:18.223Z,80.37
2024-02-26T12:09:39.847Z,80.02
2024-02-26T12:10:42.899Z,79.11
2024-02-26T12:11:44.648Z,80.08
2024-02-26T12:12:46.376Z,78.63
2024-02-26T12:13:48.457Z,77.40
2024-02-26T12:14:55.130Z,77.78
2024-02-26T12:15:59.062Z,78.72
2024-02-26T12:17:01.325Z,78.29
2024-02-26T12:18:04.984Z,78.83
2024-02-26T12:19:08.335Z,78.24
2024-02-26T12:20:14.321Z,78.76
2024-02-26T12:21:16.596Z,79.48
2024-02-26T12:22:18.390Z,79.81
2024-02-26T12:23:19.976Z,78.85
2024-02-26T12:24:22.178Z,78.85
2024-02-26T12:25:27.728Z,77.98
2024-02-26T12:26:29.396Z,78.35
2024-02-26T12:27:31.315Z,77.45
2024-02-26T12:28:33.082Z,76.67
2024-02-26T12:29:34.942Z,76.58
2024-02-26T12:30:36.654Z,75.86
2024-02-26T12:31:39.959Z,76.25
2024-02-26T12:32:41.592Z,76.49
2024-02-26T12:33:43.735Z,75.82
2024-02-26T12:34:45.597Z,75.77
2024-02-26T12:35:49.280Z,74.99
2024-02-26T12:36:51.669Z,75.04
2024-02-26T12:37:54.662Z,73.40
2024-02-26T12:38:57.069Z,71.29
2024-02-26T12:39:58.756Z,72.48
2024-02-26T12:41:00.367Z,72.88
2024-02-26T12:42:03.576Z,71.96
2024-02-26T12:43:05.946Z,71.24
2024-02-26T12:44:09.406Z,71.94
2024-02-26T12:45:13.019Z,72.11
2024-02-26T12:46:16.674Z,71.83
2024-02-26T12:47:19.542Z,71.99
2024-02-26T12:48:21.811Z,70.85
2024-02-26T12:49:23.852Z,70.04
2024-02-26T12:50:25.641Z,70.56
2024-02-26T12:51:27.918Z,69.41
2024-02-26T12:52:29.699Z,70.25
2024-02-26T12:53:31.555Z,71.18
2024-02-26T12:54:35.430Z,70.00
2024-02-26T12:55:40.644Z,69.46
2024-02-26T12:56:42.906Z,69.64
2024-02-26T12:57:46.104Z,69.86
2024-02-26T12:58:48.758Z,69.89
2024-02-26T12:59:50.669Z,71.07
2024-02-26T13:00:53.450Z,71.21
2024-02-26T13:01:55.327Z,71.06
2024-02-26T13:02:57.788Z,71.53
2024-02-26T13:04:02.035Z,71.92
2024-02-26T13:05:05.387Z,72.56
2024-02-26T13:06:07.753Z,73.05
2024-02-26T13:07:09.510Z,71.79
2024-02-26T13:08:17.982Z,71.31
2024-02-26T13:09:19.999Z,72.09
2024-02-26T13:10:22.248Z,72.28
2024-02-26T13:11:23.889Z,72.09
2024-02-26T13:12:25.568Z,71.44
2024-02-26T13:13:27.297Z,72.02
2024-02-26T13:14:28.932Z,71.46
2024-02-26T13:15:30.692Z,72.40
2024-02-26T13:16:32.352Z,71.25
2024-02-26T13:17:34.161Z,71.43
2024-02-26T13:18:37.658Z,71.86
2024-02-26T13:19:50.191Z,71.78
2024-02-26T13:20:51.915Z,70.91